createdAt,value
2019-01-31T00:01:48.754Z,88.09
2019-01-31T00:05:05.055Z,88.16
2019-01-31T00:08:45.949Z,88.17
2019-01-31T00:12:23.373Z,87.79
2019-01-31T00:16:08.004Z,87.38
2019-01-31T00:20:03.815Z,87.32
2019-01-31T00:23:47.808Z,87.05
2019-01-31T00:27:17.608Z,86.76
2019-01-31T00:31:11.720Z,86.12
2019-01-31T00:34:54.077Z,86.20
2019-01-31T00:38:28.360Z,86.02
2019-01-31T00:42:14.953Z,85.81
2019-01-31T00:45:43.736Z,86.35
2019-01-31T00:49:11.828Z,86.47
2019-01-31T00:52:42.712Z,87.00
2019-01-31T00:55:55.589Z,87.39
2019-01-31T00:59:21.197Z,87.65
2019-01-31T01:02:42.208Z,87.97
2019-01-31T01:06:21.065Z,88.15
2019-01-31T01:09:48.928Z,88.66
2019-01-31T01:13:27.130Z,88.78
2019-01-31T01:17:05.806Z,88.72
2019-01-31T01:20:35.589Z,88.30
2019-01-31T01:24:18.518Z,87.71
2019-01-31T01:27:46.887Z,88.03
2019-01-31T01:31:22.363Z,88.02
2019-01-31T01:35:15.609Z,88.05
2019-01-31T01:38:58.662Z,88.21
2019-01-31T01:42:43.414Z,88.70
2019-01-31T01:46:23.640Z,89.08
2019-01-31T01:49:37.549Z,89.57
2019-01-31T01:53:09.788Z,89.38
2019-01-31T01:57:07.849Z,89.67
2019-01-31T02:01:17.499Z,89.86
2019-01-31T02:04:44.562Z,89.95
2019-01-31T02:08:05.683Z,89.94
2019-01-31T02:11:20.908Z,89.68
2019-01-31T02:14:33.784Z,89.83
2019-01-31T02:17:56.533Z,89.99
2019-01-31T02:21:30.022Z,90.07
2019-01-31T02:24:51.838Z,90.03
2019-01-31T02:28:19.333Z,89.89
2019-01-31T02:31:40.023Z,89.99
2019-01-31T02:35:08.342Z,89.97
2019-01-31T02:38:43.750Z,89.57
2019-01-31T02:42:14.407Z,89.48
2019-01-31T02:45:59.306Z,89.06
2019-01-31T02:49:43.629Z,89.04
2019-01-31T02:53:02.081Z,88.74
2019-01-31T02:56:50.075Z,88.33
2019-01-31T03:00:34.258Z,88.16
2019-01-31T03:04:12.618Z,87.88
2019-01-31T03:07:55.731Z,87.76
2019-01-31T03:11:27.104Z,87.30
2019-01-31T03:14:45.119Z,86.87
2019-01-31T03:18:19.653Z,86.82
2019-01-31T03:22:10.984Z,86.42
2019-01-31T03:25:55.535Z,86.50
2019-01-31T03:29:24.680Z,86.29
2019-01-31T03:32:55.185Z,86.45
2019-01-31T03:36:11.439Z,86.40
2019-01-31T03:39:22.787Z,86.25
2019-01-31T03:42:59.955Z,85.90
2019-01-31T03:46:40.622Z,85.87
2019-01-31T03:50:16.289Z,86.17
2019-01-31T03:53:56.646Z,86.34
2019-01-31T03:57:34.159Z,86.36
2019-01-31T04:01:19.837Z,86.25
2019-01-31T04:04:31.438Z,86.30
2019-01-31T04:07:35.235Z,86.46
2019-01-31T04:10:39.242Z,86.45
2019-01-31T04:13:43.083Z,86.49
2019-01-31T04:16:46.990Z,86.43
2019-01-31T04:19:50.839Z,86.38
2019-01-31T04:22:54.666Z,86.46
2019-01-31T04:25:58.588Z,86.37
2019-01-31T04:29:02.595Z,86.51
2019-01-31T04:32:06.549Z,86.62
2019-01-31T04:35:10.554Z,86.68
2019-01-31T04:38:14.338Z,86.75
2019-01-31T04:41:18.184Z,86.90
2019-01-31T04:44:22.056Z,86.89
2019-01-31T04:47:25.962Z,86.94
2019-01-31T04:50:29.804Z,87.22
2019-01-31T04:53:33.728Z,87.58
2019-01-31T04:56:37.656Z,87.94
2019-01-31T04:59:41.492Z,88.29
2019-01-31T05:02:45.471Z,88.61
2019-01-31T05:05:49.336Z,88.75
2019-01-31T05:08:53.184Z,88.83
2019-01-31T05:11:59.121Z,89.01
2019-01-31T05:15:03.131Z,89.17
2019-01-31T05:18:07.121Z,89.27
2019-01-31T05:21:11.535Z,89.18
2019-01-31T05:24:15.797Z,89.22
2019-01-31T05:27:19.858Z,89.22
2019-01-31T05:30:23.826Z,89.16
2019-01-31T05:33:27.806Z,89.08
2019-01-31T05:36:31.845Z,89.09
2019-01-31T05:39:35.964Z,89.05
2019-01-31T05:42:45.778Z,88.82
2019-01-31T05:45:49.887Z,88.77
2019-01-31T05:48:54.521Z,88.83
2019-01-31T05:51:59.264Z,88.78
2019-01-31T05:55:03.468Z,88.88
2019-01-31T05:58:08.119Z,88.98
2019-01-31T06:01:12.431Z,89.03
2019-01-31T06:04:16.553Z,89.04
2019-01-31T06:07:20.654Z,88.98
2019-01-31T06:10:25.328Z,88.80
2019-01-31T06:13:29.407Z,88.75
2019-01-31T06:16:33.335Z,88.68
2019-01-31T06:19:37.803Z,88.49
2019-01-31T06:22:41.717Z,88.20
2019-01-31T06:25:45.995Z,88.20
2019-01-31T06:28:49.965Z,88.21
2019-01-31T06:31:53.826Z,88.02
2019-01-31T06:34:57.671Z,88.03
2019-01-31T06:38:04.591Z,88.14
2019-01-31T06:41:18.406Z,88.28
2019-01-31T06:44:14.167Z,88.22
2019-01-31T06:47:18.100Z,88.19
2019-01-31T06:50:24.983Z,88.04
2019-01-31T06:53:29.120Z,87.94
2019-01-31T06:56:33.363Z,87.78
2019-01-31T06:59:37.414Z,87.46
2019-01-31T07:02:41.652Z,87.35
2019-01-31T07:05:45.995Z,87.10
2019-01-31T07:08:49.792Z,86.89
2019-01-31T07:11:53.711Z,86.88
2019-01-31T07:14:57.526Z,86.67
2019-01-31T07:18:01.456Z,86.40
2019-01-31T07:21:05.432Z,86.37
2019-01-31T07:24:09.469Z,86.21
2019-01-31T07:27:13.302Z,86.16
2019-01-31T07:30:17.404Z,86.16
2019-01-31T07:33:21.215Z,85.98
2019-01-31T07:36:25.096Z,85.96
2019-01-31T07:39:28.966Z,85.65
2019-01-31T07:42:32.803Z,85.62
2019-01-31T07:45:36.794Z,85.68
2019-01-31T07:48:40.618Z,85.79
2019-01-31T07:51:44.591Z,85.85
2019-01-31T07:54:48.408Z,85.89
2019-01-31T07:57:52.376Z,85.75
2019-01-31T08:00:56.236Z,85.60
2019-01-31T08:04:02.689Z,85.62
2019-01-31T08:07:05.869Z,85.64
2019-01-31T08:10:16.014Z,85.65
2019-01-31T08:13:20.030Z,85.69
2019-01-31T08:16:23.970Z,85.60
2019-01-31T08:19:27.861Z,85.44
2019-01-31T08:22:31.793Z,85.16
2019-01-31T08:25:35.723Z,85.11
2019-01-31T08:28:39.624Z,85.14
2019-01-31T08:31:43.653Z,85.17
2019-01-31T08:34:47.474Z,84.95
2019-01-31T08:37:51.404Z,84.92
2019-01-31T08:40:55.375Z,84.87
2019-01-31T08:43:59.235Z,84.81
2019-01-31T08:47:03.056Z,84.69
2019-01-31T08:50:09.173Z,84.50
2019-01-31T08:53:13.067Z,84.04
2019-01-31T08:56:16.967Z,84.06
2019-01-31T08:59:20.784Z,83.95
2019-01-31T09:02:24.707Z,84.23
2019-01-31T09:05:28.668Z,84.17
2019-01-31T09:08:32.469Z,84.40
2019-01-31T09:11:36.381Z,84.53
2019-01-31T09:14:40.362Z,84.59
2019-01-31T09:17:44.640Z,84.36
2019-01-31T09:20:55.468Z,84.36
2019-01-31T09:24:16.521Z,84.44
2019-01-31T09:27:56.370Z,84.44
2019-01-31T09:31:44.669Z,84.41
2019-01-31T09:35:09.293Z,84.65
2019-01-31T09:38:49.363Z,84.56
2019-01-31T09:42:26.067Z,84.57
2019-01-31T09:45:51.227Z,84.42
2019-01-31T09:49:21.877Z,84.33
2019-01-31T09:52:54.371Z,84.30
2019-01-31T09:56:21.526Z,84.41
2019-01-31T10:00:00.327Z,84.72
2019-01-31T10:03:53.097Z,84.77
2019-01-31T10:07:31.004Z,84.97
2019-01-31T10:11:01.765Z,85.01
2019-01-31T10:14:55.147Z,84.97
2019-01-31T10:18:29.138Z,84.76
2019-01-31T10:21:52.681Z,84.88
2019-01-31T10:25:23.992Z,84.95
2019-01-31T10:29:02.087Z,85.02
2019-01-31T10:32:20.428Z,84.91
2019-01-31T10:35:58.054Z,85.03
2019-01-31T10:39:35.661Z,84.99
2019-01-31T10:42:52.233Z,84.82
2019-01-31T10:46:23.816Z,85.14
2019-01-31T10:50:02.070Z,85.20
2019-01-31T10:53:46.216Z,85.38
2019-01-31T10:57:26.237Z,85.82
2019-01-31T11:00:43.033Z,86.29
2019-01-31T11:04:22.266Z,86.43
2019-01-31T11:07:43.181Z,86.56
2019-01-31T11:11:25.234Z,86.55
2019-01-31T11:14:56.054Z,86.52
2019-01-31T11:18:33.772Z,86.67
2019-01-31T11:22:09.582Z,86.67
2019-01-31T11:25:46.413Z,86.88
2019-01-31T11:29:20.577Z,87.18
2019-01-31T11:33:09.058Z,87.63
2019-01-31T11:36:40.868Z,87.80
2019-01-31T11:40:27.691Z,87.68
2019-01-31T11:44:08.610Z,87.78
2019-01-31T11:47:53.733Z,88.20
2019-01-31T11:51:29.559Z,88.32
2019-01-31T11:55:02.934Z,88.62
2019-01-31T11:58:43.275Z,88.75
2019-01-31T12:01:47.282Z,88.75
2019-01-31T12:04:51.094Z,88.85
2019-01-31T12:07:55.026Z,89.03
2019-01-31T12:10:58.871Z,89.32
2019-01-31T12:14:02.743Z,89.51
2019-01-31T12:17:07.319Z,89.56
2019-01-31T12:20:11.890Z,89.66
2019-01-31T12:23:15.707Z,89.76
2019-01-31T12:26:19.615Z,89.93
2019-01-31T12:29:23.489Z,89.98
2019-01-31T12:32:27.373Z,90.10
2019-01-31T12:35:31.282Z,90.04
2019-01-31T12:38:36.881Z,90.15
2019-01-31T12:41:40.829Z,90.19
2019-01-31T12:44:44.667Z,90.07
2019-01-31T12:47:48.444Z,89.92
2019-01-31T12:50:52.422Z,90.03
2019-01-31T12:53:56.282Z,90.12
2019-01-31T12:57:00.205Z,90.08
2019-01-31T13:00:06.173Z,90.04
2019-01-31T13:03:09.999Z,90.02
2019-01-31T13:06:13.910Z,89.96
2019-01-31T13:09:17.887Z,89.89
2019-01-31T13:12:21.763Z,89.79
2019-01-31T13:15:25.834Z,89.78
2019-01-31T13:18:29.834Z,89.51
2019-01-31T13:21:33.797Z,89.44
2019-01-31T13:24:37.682Z,89.26
2019-01-31T13:27:41.699Z,89.33
2019-01-31T13:30:45.666Z,89.37
2019-01-31T13:33:49.583Z,89.20
2019-01-31T13:36:53.486Z,89.02
2019-01-31T13:39:57.459Z,88.88
2019-01-31T13:43:01.405Z,88.89
2019-01-31T13:46:05.862Z,88.92
2019-01-31T13:49:09.784Z,88.60
2019-01-31T13:52:13.668Z,88.72
2019-01-31T13:55:25.997Z,88.69
2019-01-31T13:58:29.819Z,88.43
2019-01-31T14:01:33.783Z,88.35
2019-01-31T14:04:37.590Z,88.26
2019-01-31T14:07:41.491Z,88.08
2019-01-31T14:10:45.335Z,88.07
2019-01-31T14:13:49.178Z,87.93
2019-01-31T14:16:53.098Z,87.72
2019-01-31T14:19:56.965Z,87.33
2019-01-31T14:23:00.962Z,87.29
2019-01-31T14:26:05.339Z,86.98
2019-01-31T14:29:09.311Z,86.49
2019-01-31T14:32:15.566Z,86.11
2019-01-31T14:35:19.405Z,86.16
2019-01-31T14:38:23.274Z,85.99
2019-01-31T14:41:27.108Z,85.10
2019-01-31T14:44:30.969Z,85.20
2019-01-31T14:47:34.864Z,84.82
2019-01-31T14:50:38.801Z,84.63
2019-01-31T14:53:42.637Z,84.16
2019-01-31T14:56:46.544Z,83.99
2019-01-31T14:59:50.363Z,83.11
2019-01-31T15:02:54.278Z,83.02
2019-01-31T15:05:58.161Z,82.78
2019-01-31T15:09:02.062Z,82.39
2019-01-31T15:12:06.045Z,82.40
2019-01-31T15:15:10.437Z,82.47
2019-01-31T15:18:14.329Z,82.25
2019-01-31T15:21:18.121Z,81.80
2019-01-31T15:24:21.957Z,81.97
2019-01-31T15:27:25.782Z,81.76
2019-01-31T15:30:31.765Z,81.75
2019-01-31T15:33:35.691Z,81.83
2019-01-31T15:36:39.588Z,81.74
2019-01-31T15:39:43.455Z,81.33
2019-01-31T15:42:49.043Z,81.23
2019-01-31T15:45:53.130Z,81.32
2019-01-31T15:48:57.323Z,81.22
2019-01-31T15:52:01.485Z,81.04
2019-01-31T15:55:07.720Z,80.93
2019-01-31T15:58:11.534Z,81.13
2019-01-31T16:01:15.564Z,81.24
2019-01-31T16:04:20.302Z,81.27
2019-01-31T16:07:24.201Z,81.46
2019-01-31T16:10:28.180Z,81.67
2019-01-31T16:13:32.054Z,81.87
2019-01-31T16:16:36.010Z,82.11
2019-01-31T16:19:39.959Z,82.25
2019-01-31T16:22:44.010Z,82.41
2019-01-31T16:25:48.237Z,82.51
2019-01-31T16:28:52.160Z,82.42
2019-01-31T16:31:56.072Z,82.59
2019-01-31T16:35:00.055Z,82.82
2019-01-31T16:38:04.835Z,82.98
2019-01-31T16:41:08.718Z,83.11
2019-01-31T16:44:12.706Z,83.30
2019-01-31T16:47:16.614Z,83.42
2019-01-31T16:50:20.698Z,83.40
2019-01-31T16:53:24.693Z,83.57
2019-01-31T16:56:28.731Z,83.57
2019-01-31T16:59:32.613Z,83.60
2019-01-31T17:02:36.511Z,83.59
2019-01-31T17:05:40.504Z,83.50
2019-01-31T17:08:44.307Z,83.49
2019-01-31T17:11:48.130Z,83.56
2019-01-31T17:14:51.921Z,83.61
2019-01-31T17:17:55.878Z,83.61
2019-01-31T17:20:59.693Z,83.66
2019-01-31T17:24:03.590Z,83.63
2019-01-31T17:27:07.565Z,83.67
2019-01-31T17:30:17.369Z,83.74
2019-01-31T17:33:21.296Z,83.85
2019-01-31T17:36:25.105Z,83.96
2019-01-31T17:39:28.921Z,83.96
2019-01-31T17:42:32.735Z,83.95
2019-01-31T17:45:36.639Z,83.95
2019-01-31T17:48:40.556Z,83.93
2019-01-31T17:51:44.344Z,84.08
2019-01-31T17:54:48.155Z,84.16
2019-01-31T17:57:52.154Z,83.99
2019-01-31T18:00:59.498Z,83.99
2019-01-31T18:04:03.500Z,83.79
2019-01-31T18:07:07.552Z,83.56
2019-01-31T18:10:14.671Z,83.67
2019-01-31T18:13:18.470Z,83.65
2019-01-31T18:16:22.283Z,83.79
2019-01-31T18:19:26.110Z,83.59
2019-01-31T18:22:29.989Z,83.73
2019-01-31T18:25:33.906Z,83.93
2019-01-31T18:28:37.712Z,83.75
2019-01-31T18:31:41.589Z,83.90
2019-01-31T18:34:45.459Z,84.03
2019-01-31T18:37:49.435Z,83.94
2019-01-31T18:40:53.315Z,84.13
2019-01-31T18:43:57.199Z,84.24
2019-01-31T18:47:01.063Z,84.36
2019-01-31T18:50:07.321Z,84.42
2019-01-31T18:53:11.245Z,84.68
2019-01-31T18:56:15.197Z,84.76
2019-01-31T18:59:19.105Z,84.68
2019-01-31T19:02:22.983Z,84.82
2019-01-31T19:05:27.046Z,84.69
2019-01-31T19:08:30.952Z,84.90
2019-01-31T19:11:34.756Z,84.98
2019-01-31T19:14:38.577Z,84.91
2019-01-31T19:17:42.435Z,84.85
2019-01-31T19:20:46.387Z,84.48
2019-01-31T19:23:50.253Z,84.51
2019-01-31T19:26:54.183Z,84.71
2019-01-31T19:29:58.760Z,84.58
2019-01-31T19:33:02.860Z,84.53
2019-01-31T19:36:06.876Z,84.63
2019-01-31T19:39:15.755Z,84.34
2019-01-31T19:42:22.669Z,84.25
2019-01-31T19:45:27.924Z,84.27
2019-01-31T19:48:31.733Z,84.23
2019-01-31T19:51:35.698Z,84.26
2019-01-31T19:54:39.538Z,84.17
2019-01-31T19:57:43.411Z,84.21
2019-01-31T20:00:47.386Z,84.34
2019-01-31T20:03:52.610Z,84.53
2019-01-31T20:07:00.975Z,84.18
2019-01-31T20:10:06.729Z,84.05
2019-01-31T20:13:13.090Z,84.36
2019-01-31T20:16:28.656Z,84.23
2019-01-31T20:19:26.572Z,84.38
2019-01-31T20:22:34.427Z,84.39
2019-01-31T20:25:38.491Z,84.34
2019-01-31T20:28:42.369Z,84.45
2019-01-31T20:31:46.165Z,84.38
2019-01-31T20:34:50.149Z,84.52
2019-01-31T20:37:54.201Z,84.55
2019-01-31T20:40:59.108Z,84.63
2019-01-31T20:44:03.029Z,84.56
2019-01-31T20:47:07.006Z,84.46
2019-01-31T20:50:22.981Z,84.38
2019-01-31T20:53:26.983Z,84.37
2019-01-31T20:56:33.515Z,84.50
2019-01-31T20:59:36.472Z,84.59
2019-01-31T21:02:40.493Z,84.63
2019-01-31T21:05:44.678Z,84.75
2019-01-31T21:08:48.564Z,84.82
2019-01-31T21:11:52.449Z,84.85
2019-01-31T21:14:56.342Z,84.68
2019-01-31T21:18:00.310Z,84.69
2019-01-31T21:21:05.391Z,84.68
2019-01-31T21:24:09.618Z,84.76
2019-01-31T21:27:13.796Z,84.88
2019-01-31T21:30:25.685Z,84.83
2019-01-31T21:33:29.517Z,84.62
2019-01-31T21:36:33.479Z,84.77
2019-01-31T21:39:37.435Z,84.69
2019-01-31T21:42:41.331Z,84.42
2019-01-31T21:45:45.413Z,84.20
2019-01-31T21:48:49.286Z,84.19
2019-01-31T21:51:53.520Z,84.19
2019-01-31T21:54:57.410Z,84.13
2019-01-31T21:58:01.289Z,83.90
2019-01-31T22:01:05.188Z,83.78
2019-01-31T22:04:09.005Z,83.77
2019-01-31T22:07:12.833Z,83.91
2019-01-31T22:10:18.502Z,84.10
2019-01-31T22:13:22.433Z,84.47
2019-01-31T22:16:26.326Z,84.78
2019-01-31T22:19:30.295Z,84.88
2019-01-31T22:22:34.191Z,84.94
2019-01-31T22:25:38.054Z,84.94
2019-01-31T22:28:41.893Z,84.95
2019-01-31T22:31:45.765Z,84.93
2019-01-31T22:34:49.689Z,85.05
2019-01-31T22:37:53.919Z,85.15
2019-01-31T22:40:57.827Z,84.99
2019-01-31T22:44:01.750Z,84.89
2019-01-31T22:47:05.626Z,84.94
2019-01-31T22:50:11.527Z,84.61
2019-01-31T22:53:15.347Z,84.77
2019-01-31T22:56:19.227Z,84.99
2019-01-31T22:59:23.104Z,84.98
2019-01-31T23:02:27.263Z,84.75
2019-01-31T23:05:31.336Z,84.85
2019-01-31T23:08:35.217Z,85.06
2019-01-31T23:11:39.191Z,85.26
2019-01-31T23:14:43.056Z,85.38
2019-01-31T23:17:46.979Z,85.25
2019-01-31T23:20:50.821Z,85.27
2019-01-31T23:23:54.609Z,85.22
2019-01-31T23:26:58.415Z,85.06
2019-01-31T23:30:02.318Z,85.34
2019-01-31T23:33:06.241Z,85.60
2019-01-31T23:36:10.212Z,85.75
2019-01-31T23:39:14.144Z,85.98
2019-01-31T23:42:18.042Z,86.48
2019-01-31T23:45:21.995Z,86.36
2019-01-31T23:48:25.899Z,86.29
2019-01-31T23:51:29.865Z,86.57
2019-01-31T23:54:33.766Z,86.75
2019-01-31T23:57:37.751Z,86.95
